createdAt,value
2022-12-25T00:00:28.466Z,58.34
2022-12-25T00:01:28.381Z,58.72
2022-12-25T00:02:28.438Z,58.41
2022-12-25T00:03:28.494Z,58.71
2022-12-25T00:04:28.366Z,57.60
2022-12-25T00:05:28.381Z,45.40
2022-12-25T00:06:28.395Z,49.96
2022-12-25T00:07:28.399Z,49.73
2022-12-25T00:08:28.328Z,49.48
2022-12-25T00:09:28.349Z,49.63
2022-12-25T00:10:28.309Z,46.68
2022-12-25T00:11:28.296Z,45.73
2022-12-25T00:12:28.294Z,46.80
2022-12-25T00:13:28.376Z,49.07
2022-12-25T00:14:30.824Z,42.65
2022-12-25T00:15:30.396Z,46.02
2022-12-25T00:16:30.348Z,45.58
2022-12-25T00:17:28.962Z,44.09
2022-12-25T00:18:28.311Z,46.95
2022-12-25T00:19:29.891Z,46.48
2022-12-25T00:20:29.316Z,46.50
2022-12-25T00:21:29.904Z,46.01
2022-12-25T00:22:30.475Z,43.40
2022-12-25T00:23:28.821Z,44.15
2022-12-25T00:24:29.838Z,46.66
2022-12-25T00:25:29.832Z,50.49
2022-12-25T00:26:30.325Z,46.73
2022-12-25T00:27:28.260Z,47.54
2022-12-25T00:28:29.045Z,48.51
2022-12-25T00:29:29.930Z,46.37
2022-12-25T00:30:28.890Z,48.17
2022-12-25T00:31:29.001Z,46.99
2022-12-25T00:32:30.910Z,45.91
2022-12-25T00:33:29.892Z,48.13
2022-12-25T00:34:29.820Z,58.21
2022-12-25T00:35:28.221Z,45.99
2022-12-25T00:36:33.622Z,47.31
2022-12-25T00:37:30.897Z,44.73
2022-12-25T00:38:29.828Z,42.56
2022-12-25T00:39:29.012Z,44.66
2022-12-25T00:40:29.581Z,42.86
2022-12-25T00:41:29.893Z,46.08
2022-12-25T00:42:30.834Z,55.87
2022-12-25T00:43:28.837Z,47.42
2022-12-25T00:44:29.869Z,45.16
2022-12-25T00:45:31.914Z,42.71
2022-12-25T00:46:29.376Z,45.47
2022-12-25T00:47:30.343Z,43.29
2022-12-25T00:48:30.896Z,43.49
2022-12-25T00:49:28.833Z,50.90
2022-12-25T00:50:31.835Z,45.07
2022-12-25T00:51:28.998Z,44.18
2022-12-25T00:52:31.407Z,47.48
2022-12-25T00:53:31.829Z,43.81
2022-12-25T00:54:31.385Z,48.45
2022-12-25T00:55:31.382Z,44.10
2022-12-25T00:56:29.542Z,46.19
2022-12-25T00:57:28.837Z,46.06
2022-12-25T00:58:28.831Z,46.61
2022-12-25T00:59:32.831Z,55.52
2022-12-25T01:00:30.834Z,58.84
2022-12-25T01:01:30.949Z,59.37
2022-12-25T01:02:30.493Z,59.30
2022-12-25T01:03:30.042Z,58.64
2022-12-25T01:04:30.331Z,59.80
2022-12-25T01:05:29.916Z,60.54
2022-12-25T01:06:29.409Z,61.46
2022-12-25T01:07:29.835Z,61.64
2022-12-25T01:08:45.346Z,59.69
2022-12-25T01:09:28.953Z,59.02
2022-12-25T01:10:30.831Z,58.75
2022-12-25T01:11:29.833Z,58.52
2022-12-25T01:12:29.340Z,58.30
2022-12-25T01:13:27.926Z,58.23
2022-12-25T01:14:29.338Z,58.14
2022-12-25T01:15:27.880Z,58.09
2022-12-25T01:16:29.915Z,58.04
2022-12-25T01:17:28.973Z,58.14
2022-12-25T01:18:30.348Z,58.70
2022-12-25T01:19:31.328Z,54.37
2022-12-25T01:20:28.390Z,42.04
2022-12-25T01:21:29.407Z,40.96
2022-12-25T01:22:29.926Z,43.98
2022-12-25T01:23:30.835Z,45.67
2022-12-25T01:24:31.349Z,41.75
2022-12-25T01:25:29.614Z,41.13
2022-12-25T01:26:30.376Z,43.92
2022-12-25T01:27:29.555Z,43.76
2022-12-25T01:28:28.844Z,41.24
2022-12-25T01:29:30.898Z,41.51
2022-12-25T01:30:30.540Z,43.82
2022-12-25T01:31:30.867Z,41.88
2022-12-25T01:32:28.358Z,41.85
2022-12-25T01:33:30.338Z,41.85
2022-12-25T01:34:29.832Z,41.98
2022-12-25T01:35:29.398Z,41.90
2022-12-25T01:36:29.838Z,44.67
2022-12-25T01:37:28.546Z,45.44
2022-12-25T01:38:30.333Z,44.76
2022-12-25T01:39:27.771Z,45.68
2022-12-25T01:40:29.336Z,42.74
2022-12-25T01:41:31.388Z,45.52
2022-12-25T01:42:29.901Z,47.18
2022-12-25T01:43:29.366Z,48.64
2022-12-25T01:44:28.560Z,43.41
2022-12-25T01:45:29.360Z,42.81
2022-12-25T01:46:33.425Z,42.61
2022-12-25T01:47:31.384Z,43.03
2022-12-25T01:48:31.394Z,44.68
2022-12-25T01:49:30.837Z,42.90
2022-12-25T01:50:29.333Z,45.82
2022-12-25T01:51:29.408Z,45.84
2022-12-25T01:52:29.406Z,58.84
2022-12-25T01:53:29.888Z,59.10
2022-12-25T01:54:29.838Z,59.43
2022-12-25T01:55:28.618Z,57.98
2022-12-25T01:56:29.840Z,58.21
2022-12-25T01:57:29.413Z,59.19
2022-12-25T01:58:29.399Z,59.96
2022-12-25T01:59:29.362Z,59.45
2022-12-25T02:00:29.409Z,59.24
2022-12-25T02:01:29.536Z,59.11
2022-12-25T02:02:31.444Z,59.20
2022-12-25T02:03:30.958Z,58.56
2022-12-25T02:04:28.835Z,58.42
2022-12-25T02:05:30.355Z,58.22
2022-12-25T02:06:28.841Z,58.38
2022-12-25T02:07:28.503Z,57.88
2022-12-25T02:08:30.355Z,57.70
2022-12-25T02:09:28.046Z,57.88
2022-12-25T02:10:28.345Z,58.06
2022-12-25T02:11:28.527Z,54.63
2022-12-25T02:12:30.348Z,40.87
2022-12-25T02:13:28.898Z,40.88
2022-12-25T02:14:28.849Z,43.73
2022-12-25T02:15:28.927Z,43.38
2022-12-25T02:16:28.896Z,46.97
2022-12-25T02:17:28.957Z,41.07
2022-12-25T02:18:34.408Z,43.33
2022-12-25T02:19:29.401Z,41.95
2022-12-25T02:20:29.842Z,49.23
2022-12-25T02:21:28.390Z,41.76
2022-12-25T02:22:28.843Z,41.91
2022-12-25T02:23:29.378Z,41.83
2022-12-25T02:24:28.362Z,44.81
2022-12-25T02:25:28.072Z,42.75
2022-12-25T02:26:28.371Z,44.79
2022-12-25T02:27:29.843Z,43.27
2022-12-25T02:28:28.897Z,44.13
2022-12-25T02:29:28.844Z,44.21
2022-12-25T02:30:27.895Z,42.51
2022-12-25T02:31:29.490Z,42.48
2022-12-25T02:32:30.344Z,43.07
2022-12-25T02:33:28.888Z,46.32
2022-12-25T02:34:28.378Z,42.97
2022-12-25T02:35:30.903Z,42.46
2022-12-25T02:36:28.561Z,42.63
2022-12-25T02:37:28.849Z,48.54
2022-12-25T02:38:28.899Z,46.86
2022-12-25T02:39:29.903Z,48.04
2022-12-25T02:40:28.909Z,55.04
2022-12-25T02:41:29.410Z,44.58
2022-12-25T02:42:29.851Z,42.91
2022-12-25T02:43:28.907Z,42.59
2022-12-25T02:44:29.032Z,42.54
2022-12-25T02:45:29.037Z,44.73
2022-12-25T02:46:27.860Z,43.98
2022-12-25T02:47:31.905Z,42.74
2022-12-25T02:48:28.853Z,42.83
2022-12-25T02:49:27.257Z,45.90
2022-12-25T02:50:28.561Z,48.97
2022-12-25T02:51:27.850Z,43.46
2022-12-25T02:52:30.849Z,45.72
2022-12-25T02:53:44.347Z,43.16
2022-12-25T02:54:30.892Z,43.10
2022-12-25T02:55:31.374Z,44.70
2022-12-25T02:56:27.848Z,45.73
2022-12-25T02:57:28.080Z,43.26
2022-12-25T02:58:27.863Z,43.59
2022-12-25T02:59:27.192Z,44.04
2022-12-25T03:00:29.076Z,53.23
2022-12-25T03:01:28.110Z,49.45
2022-12-25T03:02:27.490Z,50.46
2022-12-25T03:03:29.166Z,58.30
2022-12-25T03:04:29.179Z,58.65
2022-12-25T03:05:28.908Z,59.91
2022-12-25T03:06:27.934Z,60.89
2022-12-25T03:07:28.852Z,58.63
2022-12-25T03:08:27.568Z,58.58
2022-12-25T03:09:28.420Z,58.12
2022-12-25T03:10:27.993Z,58.14
2022-12-25T03:11:28.918Z,58.25
2022-12-25T03:12:27.850Z,58.23
2022-12-25T03:13:28.856Z,58.17
2022-12-25T03:14:27.914Z,59.60
2022-12-25T03:15:28.536Z,58.36
2022-12-25T03:16:28.967Z,58.39
2022-12-25T03:17:27.855Z,58.72
2022-12-25T03:18:27.866Z,59.51
2022-12-25T03:19:29.370Z,58.53
2022-12-25T03:20:27.930Z,58.42
2022-12-25T03:21:29.932Z,47.83
2022-12-25T03:22:27.973Z,40.71
2022-12-25T03:23:31.382Z,43.45
2022-12-25T03:24:29.394Z,41.38
2022-12-25T03:25:28.356Z,41.10
2022-12-25T03:26:26.928Z,41.01
2022-12-25T03:27:29.358Z,43.80
2022-12-25T03:28:29.375Z,40.77
2022-12-25T03:29:31.791Z,40.93
2022-12-25T03:30:27.957Z,41.36
2022-12-25T03:31:28.895Z,44.61
2022-12-25T03:32:26.886Z,41.78
2022-12-25T03:33:45.688Z,43.89
2022-12-25T03:34:30.863Z,45.83
2022-12-25T03:35:28.365Z,42.49
2022-12-25T03:36:31.362Z,42.52
2022-12-25T03:37:29.587Z,44.75
2022-12-25T03:38:27.367Z,42.34
2022-12-25T03:39:27.586Z,45.27
2022-12-25T03:40:28.375Z,42.56
2022-12-25T03:41:28.588Z,42.60
2022-12-25T03:42:28.370Z,44.36
2022-12-25T03:43:28.359Z,46.01
2022-12-25T03:44:29.417Z,46.09
2022-12-25T03:45:28.864Z,42.45
2022-12-25T03:46:28.933Z,42.46
2022-12-25T03:47:28.932Z,42.46
2022-12-25T03:48:26.715Z,42.48
2022-12-25T03:49:29.418Z,42.46
2022-12-25T03:50:28.359Z,44.08
2022-12-25T03:51:28.877Z,42.63
2022-12-25T03:52:28.422Z,46.17
2022-12-25T03:53:28.901Z,44.04
2022-12-25T03:54:29.369Z,42.59
2022-12-25T03:55:29.404Z,43.21
2022-12-25T03:56:28.363Z,45.40
2022-12-25T03:57:27.576Z,46.52
2022-12-25T03:58:29.864Z,50.09
2022-12-25T04:00:00.990Z,44.49
2022-12-25T04:00:26.592Z,42.82
2022-12-25T04:01:26.756Z,44.75
2022-12-25T04:02:26.735Z,42.86
2022-12-25T04:03:26.609Z,48.92
2022-12-25T04:04:26.549Z,43.03
2022-12-25T04:05:27.565Z,42.85
2022-12-25T04:06:26.565Z,42.87
2022-12-25T04:07:26.550Z,47.80
2022-12-25T04:08:26.570Z,42.90
2022-12-25T04:09:26.520Z,45.35
2022-12-25T04:10:26.569Z,44.88
2022-12-25T04:11:26.550Z,44.00
2022-12-25T04:12:26.511Z,46.17
2022-12-25T04:13:26.509Z,44.62
2022-12-25T04:14:26.489Z,48.53
2022-12-25T04:15:26.562Z,47.51
2022-12-25T04:16:26.553Z,47.18
2022-12-25T04:17:26.450Z,50.19
2022-12-25T04:18:26.471Z,55.32
2022-12-25T04:19:26.487Z,52.01
2022-12-25T04:20:26.439Z,44.48
2022-12-25T04:21:26.438Z,43.41
2022-12-25T04:22:26.452Z,45.91
2022-12-25T04:23:26.419Z,45.67
2022-12-25T04:24:26.413Z,46.16
2022-12-25T04:25:26.415Z,58.70
2022-12-25T04:26:26.389Z,59.01
2022-12-25T04:27:26.433Z,58.96
2022-12-25T04:28:26.381Z,58.69
2022-12-25T04:29:26.394Z,58.76
2022-12-25T04:30:26.380Z,58.57
2022-12-25T04:31:26.491Z,59.29
2022-12-25T04:32:26.380Z,59.49
2022-12-25T04:33:26.361Z,59.40
2022-12-25T04:34:26.354Z,58.89
2022-12-25T04:35:26.341Z,58.63
2022-12-25T04:36:26.317Z,59.18
2022-12-25T04:37:26.351Z,58.69
2022-12-25T04:38:26.310Z,58.74
2022-12-25T04:39:26.317Z,58.24
2022-12-25T04:40:26.320Z,57.35
2022-12-25T04:41:26.283Z,40.49
2022-12-25T04:42:26.308Z,41.23
2022-12-25T04:43:26.263Z,44.66
2022-12-25T04:44:26.271Z,41.51
2022-12-25T04:45:26.262Z,43.62
2022-12-25T04:46:26.305Z,43.64
2022-12-25T04:47:26.256Z,41.86
2022-12-25T04:48:26.251Z,44.80
2022-12-25T04:49:26.230Z,49.71
2022-12-25T04:50:26.218Z,48.20
2022-12-25T04:51:26.207Z,43.15
2022-12-25T04:52:26.249Z,43.92
2022-12-25T04:53:26.195Z,45.94
2022-12-25T04:54:26.205Z,42.42
2022-12-25T04:55:26.176Z,46.21
2022-12-25T04:56:26.192Z,43.96
2022-12-25T04:57:26.199Z,47.94
2022-12-25T04:58:26.158Z,47.22
2022-12-25T04:59:26.157Z,47.73
2022-12-25T05:00:26.144Z,51.03
2022-12-25T05:01:26.263Z,43.19
2022-12-25T05:02:26.400Z,43.36
2022-12-25T05:03:26.197Z,46.82
2022-12-25T05:04:26.105Z,47.33
2022-12-25T05:05:26.095Z,47.68
2022-12-25T05:06:26.102Z,42.93
2022-12-25T05:07:26.121Z,43.48
2022-12-25T05:08:26.084Z,46.22
2022-12-25T05:09:26.092Z,46.92
2022-12-25T05:10:26.067Z,44.47
2022-12-25T05:11:26.051Z,44.62
2022-12-25T05:12:26.073Z,45.72
2022-12-25T05:13:26.042Z,46.39
2022-12-25T05:14:26.050Z,45.98
2022-12-25T05:15:26.052Z,43.21
2022-12-25T05:16:26.072Z,42.65
2022-12-25T05:17:26.023Z,42.83
2022-12-25T05:18:25.996Z,44.63
2022-12-25T05:19:26.004Z,46.12
2022-12-25T05:20:25.978Z,46.52
2022-12-25T05:21:26.015Z,45.10
2022-12-25T05:22:25.992Z,46.51
2022-12-25T05:23:25.993Z,44.60
2022-12-25T05:24:25.962Z,47.50
2022-12-25T05:25:25.948Z,50.33
2022-12-25T05:26:25.926Z,50.45
2022-12-25T05:27:25.973Z,47.12
2022-12-25T05:28:25.917Z,44.23
2022-12-25T05:29:25.939Z,48.43
2022-12-25T05:30:25.899Z,49.36
2022-12-25T05:31:25.924Z,56.92
2022-12-25T05:32:26.912Z,57.41
2022-12-25T05:33:25.891Z,58.42
2022-12-25T05:34:25.898Z,59.17
2022-12-25T05:35:25.871Z,59.23
2022-12-25T05:36:25.851Z,58.86
2022-12-25T05:37:25.869Z,58.60
2022-12-25T05:38:25.832Z,58.48
2022-12-25T05:39:25.831Z,58.66
2022-12-25T05:40:25.836Z,58.84
2022-12-25T05:41:30.630Z,58.76
2022-12-25T05:42:27.835Z,59.09
2022-12-25T05:43:25.801Z,58.81
2022-12-25T05:44:25.813Z,58.57
2022-12-25T05:45:25.797Z,46.38
2022-12-25T05:46:25.859Z,45.37
2022-12-25T05:47:25.763Z,44.28
2022-12-25T05:48:25.760Z,46.00
2022-12-25T05:49:25.739Z,44.26
2022-12-25T05:50:25.733Z,49.10
2022-12-25T05:51:25.711Z,49.34
2022-12-25T05:52:25.716Z,45.51
2022-12-25T05:53:25.753Z,41.99
2022-12-25T05:54:25.695Z,46.49
2022-12-25T05:55:25.694Z,46.40
2022-12-25T05:56:25.694Z,44.71
2022-12-25T05:57:25.710Z,44.74
2022-12-25T05:58:25.687Z,43.76
2022-12-25T05:59:25.662Z,46.88
2022-12-25T06:00:25.657Z,47.02
2022-12-25T06:01:25.686Z,44.63
2022-12-25T06:02:25.884Z,48.70
2022-12-25T06:03:25.707Z,47.00
2022-12-25T06:04:25.624Z,46.25
2022-12-25T06:05:25.632Z,45.50
2022-12-25T06:06:25.619Z,44.71
2022-12-25T06:07:25.593Z,48.00
2022-12-25T06:08:25.616Z,42.99
2022-12-25T06:09:26.582Z,43.10
2022-12-25T06:10:25.588Z,46.61
2022-12-25T06:11:25.591Z,45.63
2022-12-25T06:12:25.560Z,44.73
2022-12-25T06:13:25.574Z,43.83
2022-12-25T06:14:25.549Z,45.63
2022-12-25T06:15:25.568Z,43.31
2022-12-25T06:16:25.555Z,46.84
2022-12-25T06:17:25.518Z,48.31
2022-12-25T06:18:25.542Z,47.32
2022-12-25T06:19:25.510Z,46.66
2022-12-25T06:20:25.524Z,46.33
2022-12-25T06:21:25.503Z,47.17
2022-12-25T06:22:25.499Z,45.38
2022-12-25T06:23:25.553Z,42.81
2022-12-25T06:24:25.485Z,46.46
2022-12-25T06:25:25.457Z,47.18
2022-12-25T06:26:25.459Z,43.79
2022-12-25T06:27:25.445Z,42.84
2022-12-25T06:28:25.466Z,44.35
2022-12-25T06:29:25.434Z,42.63
2022-12-25T06:30:25.426Z,44.95
2022-12-25T06:31:25.467Z,43.61
2022-12-25T06:32:25.420Z,44.99
2022-12-25T06:33:25.432Z,47.79
2022-12-25T06:34:25.396Z,45.69
2022-12-25T06:35:25.395Z,42.75
2022-12-25T06:36:25.409Z,42.65
2022-12-25T06:37:25.367Z,47.07
2022-12-25T06:38:25.382Z,46.36
2022-12-25T06:39:25.356Z,46.83
2022-12-25T06:40:25.353Z,43.60
2022-12-25T06:41:25.364Z,45.41
2022-12-25T06:42:25.328Z,46.48
2022-12-25T06:43:26.355Z,44.19
2022-12-25T06:44:25.324Z,50.98
2022-12-25T06:45:25.348Z,46.23
2022-12-25T06:46:25.389Z,45.08
2022-12-25T06:47:25.301Z,44.01
2022-12-25T06:48:25.323Z,46.69
2022-12-25T06:49:25.275Z,50.85
2022-12-25T06:50:25.271Z,56.88
2022-12-25T06:51:25.287Z,57.24
2022-12-25T06:52:25.250Z,58.15
2022-12-25T06:53:25.292Z,59.31
2022-12-25T06:54:25.258Z,59.23
2022-12-25T06:55:25.240Z,59.36
2022-12-25T06:56:25.233Z,58.59
2022-12-25T06:57:25.214Z,59.07
2022-12-25T06:58:25.264Z,59.13
2022-12-25T06:59:25.203Z,59.20
2022-12-25T07:00:25.235Z,58.75
2022-12-25T07:01:25.312Z,58.69
2022-12-25T07:02:25.361Z,58.58
2022-12-25T07:03:25.234Z,58.46
2022-12-25T07:04:25.170Z,58.27
2022-12-25T07:05:25.164Z,58.88
2022-12-25T07:06:25.172Z,46.76
2022-12-25T07:07:25.145Z,42.12
2022-12-25T07:08:25.174Z,46.20
2022-12-25T07:09:25.137Z,44.45
2022-12-25T07:10:25.122Z,46.99
2022-12-25T07:11:25.106Z,42.31
2022-12-25T07:12:25.104Z,43.45
2022-12-25T07:13:26.252Z,43.38
2022-12-25T07:14:26.089Z,44.64
2022-12-25T07:15:25.074Z,42.76
2022-12-25T07:16:25.122Z,47.95
2022-12-25T07:17:25.066Z,46.40
2022-12-25T07:18:25.094Z,44.99
2022-12-25T07:19:25.044Z,44.49
2022-12-25T07:20:25.040Z,45.06
2022-12-25T07:21:25.044Z,52.66
2022-12-25T07:22:25.034Z,46.15
2022-12-25T07:23:25.045Z,43.41
2022-12-25T07:24:25.019Z,43.94
2022-12-25T07:25:25.003Z,43.93
2022-12-25T07:26:24.994Z,43.83
2022-12-25T07:27:25.004Z,47.04
2022-12-25T07:28:25.019Z,48.25
2022-12-25T07:29:24.986Z,45.82
2022-12-25T07:30:24.990Z,48.84
2022-12-25T07:31:25.018Z,47.27
2022-12-25T07:32:24.948Z,48.63
2022-12-25T07:33:24.980Z,50.99
2022-12-25T07:34:24.950Z,47.81
2022-12-25T07:35:24.935Z,47.40
2022-12-25T07:36:24.926Z,43.10
2022-12-25T07:37:24.919Z,46.86
2022-12-25T07:38:24.947Z,46.88
2022-12-25T07:39:24.922Z,46.79
2022-12-25T07:40:24.900Z,48.65
2022-12-25T07:41:24.896Z,46.53
2022-12-25T07:42:25.431Z,48.00
2022-12-25T07:43:25.912Z,47.22
2022-12-25T07:44:24.853Z,52.23
2022-12-25T07:45:24.856Z,45.01
2022-12-25T07:46:25.002Z,46.33
2022-12-25T07:47:24.833Z,44.90
2022-12-25T07:48:24.860Z,47.63
2022-12-25T07:49:24.822Z,44.61
2022-12-25T07:50:24.806Z,50.21
2022-12-25T07:51:24.801Z,47.28
2022-12-25T07:52:24.819Z,50.13
2022-12-25T07:53:24.821Z,48.35
2022-12-25T07:54:24.788Z,49.24
2022-12-25T07:55:24.789Z,48.50
2022-12-25T07:56:24.782Z,48.97
2022-12-25T07:57:24.766Z,47.16
2022-12-25T07:58:24.796Z,47.94
2022-12-25T07:59:24.748Z,51.53
2022-12-25T08:00:24.737Z,48.52
2022-12-25T08:01:24.989Z,49.37
2022-12-25T08:02:25.043Z,48.51
2022-12-25T08:03:24.969Z,49.56
2022-12-25T08:04:24.710Z,52.36
2022-12-25T08:05:24.699Z,51.67
2022-12-25T08:06:24.708Z,47.39
2022-12-25T08:07:24.678Z,51.16
2022-12-25T08:08:24.708Z,51.74
2022-12-25T08:09:24.696Z,52.40
2022-12-25T08:10:24.708Z,49.56
2022-12-25T08:11:24.663Z,49.93
2022-12-25T08:12:24.642Z,50.31
2022-12-25T08:13:24.644Z,48.63
2022-12-25T08:14:24.653Z,50.05
2022-12-25T08:15:24.643Z,53.03
2022-12-25T08:16:24.659Z,51.40
2022-12-25T08:17:24.619Z,57.36
2022-12-25T08:18:29.506Z,58.93
2022-12-25T08:19:26.614Z,58.65
2022-12-25T08:20:24.599Z,59.44
2022-12-25T08:21:24.589Z,58.99
2022-12-25T08:22:24.573Z,58.89
2022-12-25T08:23:24.572Z,59.39
2022-12-25T08:24:24.581Z,60.09
2022-12-25T08:25:24.547Z,59.80
2022-12-25T08:26:24.566Z,58.97
2022-12-25T08:27:24.540Z,59.17
2022-12-25T08:28:24.529Z,58.78
2022-12-25T08:29:24.561Z,59.18
2022-12-25T08:30:24.515Z,55.48
2022-12-25T08:31:24.537Z,54.51
2022-12-25T08:32:24.501Z,52.22
2022-12-25T08:33:24.500Z,48.84
2022-12-25T08:34:24.505Z,55.56
2022-12-25T08:35:24.479Z,53.62
2022-12-25T08:36:24.481Z,51.73
2022-12-25T08:37:24.463Z,50.71
2022-12-25T08:38:24.471Z,57.59
2022-12-25T08:39:24.523Z,58.63
2022-12-25T08:40:24.445Z,51.78
2022-12-25T08:41:24.434Z,52.60
2022-12-25T08:42:24.422Z,52.97
2022-12-25T08:43:24.423Z,52.97
2022-12-25T08:44:24.439Z,54.97
2022-12-25T08:45:27.345Z,50.98
2022-12-25T08:46:25.482Z,51.55
2022-12-25T08:47:24.392Z,47.93
2022-12-25T08:48:24.386Z,46.43
2022-12-25T08:49:24.405Z,52.66
2022-12-25T08:50:24.398Z,53.74
2022-12-25T08:51:24.371Z,51.79
2022-12-25T08:52:24.358Z,52.33
2022-12-25T08:53:24.367Z,51.53
2022-12-25T08:54:24.775Z,55.94
2022-12-25T08:55:24.384Z,55.44
2022-12-25T08:56:24.320Z,53.07
2022-12-25T08:57:25.265Z,59.44
2022-12-25T08:58:24.315Z,58.92
2022-12-25T08:59:24.330Z,57.05
2022-12-25T09:00:24.302Z,50.61
2022-12-25T09:01:24.379Z,50.01
2022-12-25T09:02:25.580Z,52.30
2022-12-25T09:03:24.425Z,52.71
2022-12-25T09:04:24.277Z,53.86
2022-12-25T09:05:24.240Z,54.13
2022-12-25T09:06:24.243Z,56.22
2022-12-25T09:07:24.218Z,55.39
2022-12-25T09:08:24.248Z,50.09
2022-12-25T09:09:24.250Z,52.21
2022-12-25T09:10:24.236Z,50.00
2022-12-25T09:11:24.202Z,53.55
2022-12-25T09:12:24.180Z,52.63
2022-12-25T09:13:24.187Z,55.25
2022-12-25T09:14:24.314Z,52.93
2022-12-25T09:15:24.172Z,52.07
2022-12-25T09:16:24.239Z,52.43
2022-12-25T09:17:24.159Z,54.86
2022-12-25T09:18:24.148Z,52.79
2022-12-25T09:19:24.166Z,58.65
2022-12-25T09:20:24.131Z,58.91
2022-12-25T09:21:24.118Z,59.20
2022-12-25T09:22:24.125Z,52.64
2022-12-25T09:23:24.099Z,51.49
2022-12-25T09:24:24.135Z,52.93
2022-12-25T09:25:24.117Z,51.04
2022-12-25T09:26:24.105Z,49.33
2022-12-25T09:27:24.086Z,52.32
2022-12-25T09:28:24.063Z,54.43
2022-12-25T09:29:25.096Z,55.02
2022-12-25T09:30:24.055Z,56.94
2022-12-25T09:31:24.120Z,54.90
2022-12-25T09:32:24.066Z,55.38
2022-12-25T09:33:24.070Z,55.98
2022-12-25T09:34:25.134Z,55.61
2022-12-25T09:35:24.080Z,54.67
2022-12-25T09:36:24.078Z,56.53
2022-12-25T09:37:24.037Z,56.20
2022-12-25T09:38:24.001Z,58.52
2022-12-25T09:39:24.030Z,57.88
2022-12-25T09:40:23.986Z,57.81
2022-12-25T09:41:24.007Z,55.59
2022-12-25T09:42:23.974Z,52.98
2022-12-25T09:43:23.965Z,57.50
2022-12-25T09:44:24.013Z,55.98
2022-12-25T09:45:23.945Z,54.58
2022-12-25T09:46:24.027Z,52.15
2022-12-25T09:47:23.970Z,53.98
2022-12-25T09:48:24.070Z,57.67
2022-12-25T09:49:23.971Z,56.07
2022-12-25T09:50:23.925Z,56.64
2022-12-25T09:51:23.902Z,57.15
2022-12-25T09:52:24.035Z,55.03
2022-12-25T09:53:23.981Z,56.83
2022-12-25T09:54:23.899Z,54.92
2022-12-25T09:55:23.909Z,52.22
2022-12-25T09:56:23.874Z,54.29
2022-12-25T09:57:23.873Z,54.53
2022-12-25T09:58:24.101Z,50.48
2022-12-25T09:59:23.870Z,52.70
2022-12-25T10:00:57.571Z,54.86
2022-12-25T10:01:23.855Z,53.61
2022-12-25T10:02:23.991Z,54.89
2022-12-25T10:03:23.859Z,55.74
2022-12-25T10:04:23.811Z,53.55
2022-12-25T10:05:23.840Z,53.61
2022-12-25T10:06:23.820Z,56.85
2022-12-25T10:07:23.777Z,56.99
2022-12-25T10:08:23.765Z,55.40
2022-12-25T10:09:23.752Z,55.20
2022-12-25T10:10:23.787Z,53.98
2022-12-25T10:11:23.780Z,54.74
2022-12-25T10:12:23.737Z,54.70
2022-12-25T10:13:23.737Z,56.73
2022-12-25T10:14:23.793Z,52.76
2022-12-25T10:15:23.788Z,52.89
2022-12-25T10:16:23.759Z,54.59
2022-12-25T10:17:23.696Z,54.94
2022-12-25T10:18:23.685Z,55.69
2022-12-25T10:19:23.708Z,57.28
2022-12-25T10:20:23.686Z,55.84
2022-12-25T10:21:23.690Z,55.47
2022-12-25T10:22:23.734Z,57.47
2022-12-25T10:23:23.661Z,56.09
2022-12-25T10:24:23.672Z,56.41
2022-12-25T10:25:23.674Z,54.64
2022-12-25T10:26:23.781Z,58.58
2022-12-25T10:27:23.618Z,55.08
2022-12-25T10:28:23.703Z,56.07
2022-12-25T10:29:23.621Z,54.17
2022-12-25T10:30:23.625Z,53.67
2022-12-25T10:31:23.640Z,55.23
2022-12-25T10:32:23.593Z,59.46
2022-12-25T10:33:23.600Z,60.59
2022-12-25T10:34:23.568Z,60.46
2022-12-25T10:35:23.585Z,60.18
2022-12-25T10:36:23.557Z,62.34
2022-12-25T10:37:24.212Z,61.02
2022-12-25T10:38:23.537Z,59.72
2022-12-25T10:39:23.574Z,60.51
2022-12-25T10:40:23.589Z,59.44
2022-12-25T10:41:23.535Z,59.21
2022-12-25T10:42:23.509Z,59.84
2022-12-25T10:43:23.498Z,60.49
2022-12-25T10:44:23.499Z,60.23
2022-12-25T10:45:23.512Z,61.18
2022-12-25T10:46:23.596Z,60.04
2022-12-25T10:47:23.473Z,59.89
2022-12-25T10:48:23.473Z,59.20
2022-12-25T10:49:23.517Z,58.74
2022-12-25T10:50:23.495Z,59.65
2022-12-25T10:51:23.438Z,60.03
2022-12-25T10:52:23.447Z,59.70
2022-12-25T10:53:23.421Z,58.30
2022-12-25T10:54:23.433Z,59.93
2022-12-25T10:55:28.461Z,60.46
2022-12-25T10:56:25.434Z,59.69
2022-12-25T10:57:23.387Z,55.40
2022-12-25T10:58:23.380Z,57.34
2022-12-25T10:59:23.382Z,53.52
2022-12-25T11:00:23.405Z,56.49
2022-12-25T11:01:23.501Z,57.72
2022-12-25T11:02:23.666Z,56.53
2022-12-25T11:03:23.519Z,55.35
2022-12-25T11:04:23.343Z,55.39
2022-12-25T11:05:23.357Z,53.12
2022-12-25T11:06:23.323Z,59.51
2022-12-25T11:07:23.312Z,54.36
2022-12-25T11:08:23.300Z,52.31
2022-12-25T11:09:23.294Z,57.22
2022-12-25T11:10:23.303Z,56.75
2022-12-25T11:11:23.306Z,56.99
2022-12-25T11:12:23.276Z,57.70
2022-12-25T11:13:23.267Z,54.26
2022-12-25T11:14:23.254Z,54.80
2022-12-25T11:15:23.241Z,58.69
2022-12-25T11:16:23.334Z,56.79
2022-12-25T11:17:23.239Z,53.43
2022-12-25T11:18:23.277Z,56.45
2022-12-25T11:19:23.279Z,58.10
2022-12-25T11:20:23.204Z,57.79
2022-12-25T11:21:23.240Z,56.92
2022-12-25T11:22:23.192Z,56.86
2022-12-25T11:23:23.179Z,51.13
2022-12-25T11:24:23.423Z,52.90
2022-12-25T11:25:23.171Z,55.65
2022-12-25T11:26:23.195Z,53.44
2022-12-25T11:27:23.157Z,55.76
2022-12-25T11:28:23.153Z,53.48
2022-12-25T11:29:23.141Z,56.08
2022-12-25T11:30:23.152Z,56.00
2022-12-25T11:31:23.180Z,53.89
2022-12-25T11:32:23.122Z,56.71
2022-12-25T11:33:23.115Z,55.55
2022-12-25T11:34:23.133Z,55.01
2022-12-25T11:35:23.153Z,54.02
2022-12-25T11:36:23.114Z,56.05
2022-12-25T11:37:23.087Z,53.66
2022-12-25T11:38:23.069Z,57.29
2022-12-25T11:39:23.075Z,54.61
2022-12-25T11:40:23.066Z,55.94
2022-12-25T11:41:23.096Z,51.43
2022-12-25T11:42:23.043Z,53.38
2022-12-25T11:43:23.025Z,54.50
2022-12-25T11:44:23.020Z,55.17
2022-12-25T11:45:23.015Z,50.37
2022-12-25T11:46:23.089Z,56.46
2022-12-25T11:47:23.032Z,57.75
2022-12-25T11:48:22.999Z,56.53
2022-12-25T11:49:22.990Z,52.93
2022-12-25T11:50:22.978Z,53.43
2022-12-25T11:51:22.990Z,53.12
2022-12-25T11:52:22.964Z,54.56
2022-12-25T11:53:23.021Z,53.74
2022-12-25T11:54:22.969Z,53.11
2022-12-25T11:55:22.945Z,53.71
2022-12-25T11:56:22.967Z,52.76
2022-12-25T11:57:22.944Z,50.21
2022-12-25T11:58:22.923Z,56.51
2022-12-25T11:59:22.912Z,52.73
2022-12-25T12:00:22.907Z,51.49
2022-12-25T12:01:22.941Z,53.73
2022-12-25T12:02:23.043Z,52.48
2022-12-25T12:03:22.978Z,53.11
2022-12-25T12:04:27.622Z,54.80
2022-12-25T12:05:24.853Z,52.35
2022-12-25T12:06:22.847Z,51.49
2022-12-25T12:07:23.176Z,56.94
2022-12-25T12:08:22.847Z,53.84
2022-12-25T12:09:22.880Z,54.58
2022-12-25T12:10:22.818Z,54.75
2022-12-25T12:11:22.836Z,53.96
2022-12-25T12:12:22.841Z,56.04
2022-12-25T12:13:22.804Z,57.47
2022-12-25T12:14:22.795Z,53.80
2022-12-25T12:15:22.799Z,55.74
2022-12-25T12:16:22.860Z,51.24
2022-12-25T12:17:22.798Z,57.20
2022-12-25T12:18:22.766Z,52.33
2022-12-25T12:19:22.749Z,53.27
2022-12-25T12:20:22.750Z,54.47
2022-12-25T12:21:22.748Z,51.37
2022-12-25T12:22:22.891Z,53.02
2022-12-25T12:23:22.722Z,52.63
2022-12-25T12:24:22.721Z,54.40
2022-12-25T12:25:22.728Z,55.85
2022-12-25T12:26:22.758Z,50.63
2022-12-25T12:27:22.743Z,53.56
2022-12-25T12:28:22.739Z,48.13
2022-12-25T12:29:22.700Z,53.11
2022-12-25T12:30:22.671Z,53.48
2022-12-25T12:31:22.698Z,55.22
2022-12-25T12:32:22.692Z,54.57
2022-12-25T12:33:22.645Z,53.99
2022-12-25T12:34:22.643Z,51.01
2022-12-25T12:35:22.643Z,53.69
2022-12-25T12:36:34.497Z,58.47
2022-12-25T12:37:25.178Z,56.08
2022-12-25T12:38:23.604Z,50.30
2022-12-25T12:39:22.612Z,55.92
2022-12-25T12:40:22.590Z,52.25
2022-12-25T12:41:22.582Z,53.96
2022-12-25T12:42:22.602Z,57.13
2022-12-25T12:43:22.564Z,55.46
2022-12-25T12:44:22.578Z,50.17
2022-12-25T12:45:22.545Z,54.12
2022-12-25T12:46:27.985Z,52.27
2022-12-25T12:47:24.570Z,51.96
2022-12-25T12:48:22.529Z,56.54
2022-12-25T12:49:22.523Z,55.29
2022-12-25T12:50:22.554Z,52.47
2022-12-25T12:51:22.531Z,54.99
2022-12-25T12:52:22.542Z,54.75